Airfield :
LOGIN :

Register | Disclaimer

   EN    FR    IT 

 










Legend :    VFR   Marginal VFR   IFR   Intensive IFR   Very Intensive IFR
Visi :
Ceiling :
>= 8 km
>= 3000ft
5 to 8 km
1000 to 3000 ft
1500m to 5 km
500 to 1000 ft
800 to 1500m
200 to 500 ft
< 800m
< 200 ft
Symbols :   Thunderstorms  Fog  Heavy snow  Heavy precipitations  Wind > 20 kt
SIGMETs :     Misc.  Thunderstorms  Icing  Turbulence  Mountain Waves  Volcanic Ashes







- Airport Elevation : 72 ft
- IATA code : UDE


EHVK - Volkel Airbase

CURRENT METAR :
  • 201625Z AUTO 17003KT 150V210 9999 SCT005 OVC006 02/02 Q0999 YLO

EXPIRED METARs :
  • 201607Z AUTO 15003KT 9999 BKN006 OVC007 02/02 Q0999 YLO
  • 201604Z AUTO 14003KT 130V190 9999 SCT007 BKN008 OVC009 02/02 Q0999 GRN
  • 201555Z AUTO 14003KT 090V170 9999 -DZ BKN005 OVC010 03/02 Q0999 YLO
  • 201540Z AUTO 14004KT 100V180 9999 -DZ SCT006 OVC010 03/02 Q0999 YLO
  • 201530Z AUTO 14005KT 9999 -DZ BKN007 OVC008 03/02 Q0999 GRN
  • 201525Z AUTO 14006KT 9999 DZ BKN006 OVC007 03/02 Q0999 YLO
  • 201455Z AUTO 16004KT 120V180 9999 +DZRA FEW006 BKN007 OVC008 03/02 Q0999 GRN
  • 201432Z AUTO 17004KT 9999 +DZ FEW005 SCT007 BKN009 03/02 Q1000 GRN
  • 201417Z AUTO 16004KT 9999 DZ SCT005 BKN007 OVC009 03/02 Q1000 YLO
  • 201403Z AUTO 17004KT 9000 DZ SCT004 BKN006 BKN007 03/02 Q1000 YLO
  • 201355Z AUTO 19004KT 140V230 9000 DZ SCT006 BKN008 OVC009 03/02 Q1000 YLO
  • 201347Z AUTO 20004KT 140V230 9999 DZ SCT006 OVC007 03/02 Q1000 YLO

Expired Forecast.
No reported NOTAMs for that airfield.



MET'MAP, your aeronautical weather chart ! - Copyright ORBIFLY December 2007 - Disclaimer

ORBIFLY MET'MAP TEAM :

Programming & Development : Alexandra Zaïnal
Concept & Development : Baudouin d'Aumeries
Co-Development & Prog : Marc-Olivier Méhu
Technical & hardware support : Manuel Goepfert

Contact : metmap@orbifly.com




SOURCES & CREDITS :

   NOAA